Time;durP1;ratioP1;P1;durP2;ratioP2;P2;SDS_P1;SDS_P2;PMS_P1;PMS_P2;Temp;Humidity;BMP_temperature;BMP_pressure;BME280_temperature;BME280_humidity;BME280_pressure;Samples;Min_cycle;Max_cycle;Signal;HPM_P1;HPM_P2
2022/12/21 00:01:52;;;;;;;37.95;17.02;;;;;;;5.20;52.50;99380.75;4350059;33;20083;-82
2022/12/21 00:04:17;;;;;;;43.42;18.25;;;;;;;5.19;52.49;99384.25;4350301;33;20151;-82
2022/12/21 00:06:43;;;;;;;41.00;16.83;;;;;;;5.20;52.57;99385.13;4350302;33;20092;-82
2022/12/21 00:09:13;;;;;;;33.88;16.48;;;;;;;5.18;52.47;99374.72;4350532;33;20091;-83
2022/12/21 00:11:39;;;;;;;37.47;16.77;;;;;;;5.18;52.72;99372.09;4349486;33;20080;-82
2022/12/21 00:14:05;;;;;;;38.78;17.15;;;;;;;5.20;52.62;99377.31;4336827;33;20130;-82
2022/12/21 00:16:33;;;;;;;40.45;16.33;;;;;;;5.21;52.44;99371.16;4350260;33;20091;-82
2022/12/21 00:18:59;;;;;;;41.60;16.55;;;;;;;5.23;52.45;99366.75;4350201;33;20094;-82
2022/12/21 00:21:29;;;;;;;36.63;14.85;;;;;;;5.27;52.05;99376.25;4350330;33;20083;-82
2022/12/21 00:23:58;;;;;;;37.25;15.85;;;;;;;5.26;51.94;99367.56;4350055;33;20165;-82
2022/12/21 00:26:25;;;;;;;37.58;17.17;;;;;;;5.24;51.85;99377.19;4350183;33;20099;-82
2022/12/21 00:28:53;;;;;;;40.07;17.00;;;;;;;5.28;51.77;99367.53;4336657;33;20109;-83
2022/12/21 00:31:23;;;;;;;38.38;16.60;;;;;;;5.27;51.76;99368.41;4350105;33;20596;-82
2022/12/21 00:33:48;;;;;;;36.58;15.98;;;;;;;5.28;51.51;99365.75;4336870;33;20091;-82
2022/12/21 00:36:16;;;;;;;35.55;15.45;;;;;;;5.26;51.46;99366.69;4348893;33;20091;-82
2022/12/21 00:38:42;;;;;;;38.45;16.67;;;;;;;5.31;51.32;99364.81;4350047;33;20113;-82
2022/12/21 00:41:10;;;;;;;39.05;16.30;;;;;;;5.32;51.33;99363.94;4349801;33;20071;-82
2022/12/21 00:43:37;;;;;;;39.88;17.30;;;;;;;5.33;51.36;99357.81;4349985;33;20249;-81
2022/12/21 00:46:03;;;;;;;35.95;16.15;;;;;;;5.30;51.45;99358.75;4336605;33;20099;-82
2022/12/21 00:48:30;;;;;;;39.08;15.75;;;;;;;5.32;51.72;99358.72;4348361;33;20109;-82
2022/12/21 00:51:04;;;;;;;37.42;16.35;;;;;;;5.35;51.56;99365.59;4336667;33;20113;-82
2022/12/21 00:53:29;;;;;;;38.95;16.30;;;;;;;5.34;51.62;99358.69;4349866;33;20479;-82
2022/12/21 00:55:56;;;;;;;35.75;15.35;;;;;;;5.39;51.36;99362.91;4349872;33;20104;-83
2022/12/21 00:58:23;;;;;;;36.50;15.77;;;;;;;5.40;51.29;99363.75;4348679;33;20117;-83
2022/12/21 01:00:49;;;;;;;36.05;15.57;;;;;;;5.40;51.31;99359.38;4336348;33;20083;-84
2022/12/21 01:03:14;;;;;;;38.83;15.75;;;;;;;5.41;51.32;99361.09;4338865;33;20154;-83
2022/12/21 01:05:39;;;;;;;39.10;16.60;;;;;;;5.40;51.29;99355.91;4333978;33;20398;-84
2022/12/21 01:08:05;;;;;;;37.53;17.55;;;;;;;5.42;51.44;99361.97;4335152;33;20088;-85
2022/12/21 01:10:30;;;;;;;35.22;15.98;;;;;;;5.36;51.76;99356.88;4321554;33;20472;-76
2022/12/21 01:12:57;;;;;;;36.55;15.80;;;;;;;5.38;51.81;99361.16;4335155;33;20091;-86
2022/12/21 01:15:23;;;;;;;34.75;15.98;;;;;;;5.29;51.80;99349.22;4334938;33;20155;-84
2022/12/21 01:17:48;;;;;;;37.38;16.25;;;;;;;5.39;51.82;99356.78;4321162;33;20087;-85
2022/12/21 01:20:13;;;;;;;35.55;16.08;;;;;;;5.41;51.74;99352.38;4334486;33;20127;-85
2022/12/21 01:22:39;;;;;;;36.92;15.65;;;;;;;5.43;51.95;99338.41;4321628;33;20122;-85
2022/12/21 01:25:05;;;;;;;37.53;15.50;;;;;;;5.42;51.95;99341.06;4334861;33;20076;-85
2022/12/21 01:27:30;;;;;;;37.72;17.00;;;;;;;5.41;51.67;99337.59;4335021;33;20106;-85
2022/12/21 01:29:55;;;;;;;38.47;16.87;;;;;;;5.42;51.24;99328.84;4335035;33;20131;-85
2022/12/21 01:32:21;;;;;;;37.47;15.68;;;;;;;5.43;51.14;99322.75;4334939;33;20099;-85
2022/12/21 01:34:46;;;;;;;39.97;14.80;;;;;;;5.05;52.01;99334.09;4334926;33;20092;-85
2022/12/21 01:37:12;;;;;;;36.63;16.17;;;;;;;5.31;51.37;99329.13;4334928;33;20084;-86
2022/12/21 01:39:37;;;;;;;37.45;16.30;;;;;;;5.06;51.88;99325.38;4334773;33;20106;-84
2022/12/21 01:42:03;;;;;;;42.45;16.52;;;;;;;5.24;51.56;99326.69;4334882;33;20095;-85
2022/12/21 01:45:24;;;;;;;39.00;16.25;;;;;;;5.26;51.79;99324.91;4321548;33;20092;-85
2022/12/21 01:47:58;;;;;;;36.72;14.40;;;;;;;5.18;51.76;99319.03;4299490;33;20152;-84
2022/12/21 01:50:39;;;;;;;40.30;16.65;;;;;;;5.26;51.77;99312.69;4291319;33;20072;-85
2022/12/21 01:53:16;;;;;;;38.13;16.33;;;;;;;5.24;51.47;99309.25;4303489;33;20168;-85
2022/12/21 01:55:45;;;;;;;39.43;16.53;;;;;;;5.30;51.74;99308.25;4291333;33;20104;-85
2022/12/21 01:58:10;;;;;;;35.63;15.82;;;;;;;5.36;51.34;99299.41;4291361;33;20076;-85
2022/12/21 02:00:37;;;;;;;36.63;15.23;;;;;;;5.32;51.39;99307.31;4302126;33;20451;-85
2022/12/21 02:03:05;;;;;;;37.13;15.32;;;;;;;5.35;51.54;99297.69;4291352;33;20100;-86
2022/12/21 02:05:36;;;;;;;37.00;16.25;;;;;;;5.37;51.65;99291.53;4303451;33;20120;-85
2022/12/21 02:08:03;;;;;;;38.47;16.70;;;;;;;5.41;51.40;99303.62;4303366;33;20111;-85
2022/12/21 02:10:29;;;;;;;38.70;16.53;;;;;;;5.44;51.34;99297.47;4303357;33;20153;-84
2022/12/21 02:13:03;;;;;;;40.92;16.73;;;;;;;5.45;51.07;99289.59;4303244;33;20219;-85
2022/12/21 02:15:47;;;;;;;38.42;16.55;;;;;;;4.97;51.82;99289.91;4291484;33;20112;-85
2022/12/21 02:18:23;;;;;;;39.95;17.08;;;;;;;5.28;51.05;99290.00;4303230;33;20088;-85
2022/12/21 02:21:27;;;;;;;38.88;16.95;;;;;;;5.32;51.20;99283.81;4303221;33;20088;-85
2022/12/21 02:24:11;;;;;;;41.08;17.77;;;;;;;5.42;51.03;99271.34;4329771;33;20162;-85
2022/12/21 02:26:55;;;;;;;39.83;17.08;;;;;;;5.35;51.17;99276.78;4334651;33;20113;-85
2022/12/21 02:29:34;;;;;;;37.65;17.00;;;;;;;5.37;51.45;99272.38;4334803;33;20103;-84
2022/12/21 02:32:15;;;;;;;36.05;16.15;;;;;;;5.44;51.13;99263.50;4334412;33;20098;-84
2022/12/21 02:35:12;;;;;;;37.30;16.87;;;;;;;5.35;51.38;99262.00;4334468;33;20471;-85
2022/12/21 02:38:13;;;;;;;38.30;16.95;;;;;;;5.40;51.28;99260.09;4303133;33;20139;-85
2022/12/21 02:40:42;;;;;;;37.78;16.37;;;;;;;5.15;51.14;99249.41;4303056;33;20085;-84
2022/12/21 02:46:05;;;;;;;41.13;17.17;;;;;;;5.20;51.22;99252.78;4302976;33;20134;-85
2022/12/21 02:48:40;;;;;;;39.45;16.33;;;;;;;5.24;51.03;99257.03;4302817;33;20104;-86
2022/12/21 02:51:09;;;;;;;41.10;17.80;;;;;;;5.04;51.61;99243.59;4302994;33;20092;-83
2022/12/21 02:53:37;;;;;;;40.10;16.80;;;;;;;5.21;51.54;99251.00;4302654;33;20127;-83
2022/12/21 02:56:02;;;;;;;38.67;17.52;;;;;;;5.29;51.40;99247.31;4302744;33;20120;-83
2022/12/21 02:58:28;;;;;;;41.03;17.48;;;;;;;5.34;51.36;99247.19;4302788;33;20143;-83
2022/12/21 03:00:53;;;;;;;38.05;16.40;;;;;;;5.32;51.53;99251.59;4302494;33;20115;-83
2022/12/21 03:03:49;;;;;;;45.38;18.42;;;;;;;5.32;51.71;99244.63;4302872;33;20381;-83
2022/12/21 03:06:52;;;;;;;38.95;16.75;;;;;;;4.99;52.46;99241.09;4302640;33;20469;-82
2022/12/21 03:09:29;;;;;;;39.28;17.12;;;;;;;5.23;52.09;99238.78;4302843;33;20176;-83
2022/12/21 03:12:09;;;;;;;43.97;18.52;;;;;;;5.23;52.10;99230.94;4303462;33;20542;-83
2022/12/21 03:14:39;;;;;;;37.55;17.05;;;;;;;5.11;52.21;99232.09;4317866;33;20142;-83
2022/12/21 03:17:12;;;;;;;39.53;17.40;;;;;;;5.28;51.92;99227.31;4335827;33;20575;-82
2022/12/21 03:19:45;;;;;;;39.20;17.50;;;;;;;5.37;51.81;99217.50;4335953;33;20092;-83
2022/12/21 03:22:51;;;;;;;42.03;17.90;;;;;;;5.43;51.67;99214.75;4335795;33;20448;-83
2022/12/21 03:25:34;;;;;;;38.20;18.12;;;;;;;5.41;51.69;99209.56;4289909;33;20192;-83
2022/12/21 03:28:03;;;;;;;40.70;17.52;;;;;;;5.47;51.09;99208.53;4290103;33;20539;-83
2022/12/21 03:30:30;;;;;;;41.78;18.58;;;;;;;5.31;51.53;99208.97;4277833;33;20128;-83
2022/12/21 03:32:59;;;;;;;38.83;17.77;;;;;;;5.31;51.91;99206.34;4277907;33;20546;-83
2022/12/21 03:35:28;;;;;;;38.45;17.10;;;;;;;5.42;51.88;99213.03;4289854;33;20648;-83
2022/12/21 03:37:55;;;;;;;38.15;17.42;;;;;;;5.34;51.58;99204.53;4277903;33;20112;-83
2022/12/21 03:40:24;;;;;;;39.08;17.75;;;;;;;5.42;51.56;99207.81;4290036;33;20587;-82
2022/12/21 03:43:15;;;;;;;37.20;17.80;;;;;;;5.43;51.44;99205.16;4289934;33;20097;-83
2022/12/21 03:46:10;;;;;;;39.65;17.80;;;;;;;5.31;51.56;99198.50;4290194;33;20099;-83
2022/12/21 03:48:35;;;;;;;38.28;16.85;;;;;;;4.70;52.66;99197.44;4247049;33;20101;-82
2022/12/21 03:51:07;;;;;;;37.72;16.55;;;;;;;5.11;51.64;99206.00;4247098;33;20536;-83
2022/12/21 03:53:40;;;;;;;39.50;16.87;;;;;;;4.85;51.93;99211.88;4247019;33;20098;-83
2022/12/21 03:56:07;;;;;;;38.63;16.50;;;;;;;5.13;51.40;99215.50;4246950;33;20073;-83
2022/12/21 03:58:34;;;;;;;40.80;16.95;;;;;;;5.11;51.18;99216.44;4246889;33;20434;-83
2022/12/21 04:01:06;;;;;;;39.17;17.05;;;;;;;5.14;51.29;99226.81;4247562;33;20364;-83
2022/12/21 04:03:39;;;;;;;36.70;17.10;;;;;;;5.16;51.47;99213.69;4261260;33;20089;-83
2022/12/21 04:06:09;;;;;;;38.78;16.95;;;;;;;5.24;51.42;99228.28;4261379;33;20420;-86
2022/12/21 04:08:35;;;;;;;39.28;17.42;;;;;;;5.29;51.20;99230.78;4261385;33;20206;-85
2022/12/21 04:11:01;;;;;;;36.78;16.35;;;;;;;5.31;50.94;99224.63;4249497;33;20097;-88
2022/12/21 04:13:26;;;;;;;35.08;15.73;;;;;;;5.37;50.75;99218.38;4261275;33;20540;-84
2022/12/21 04:16:04;;;;;;;35.38;16.15;;;;;;;5.36;50.65;99206.22;4249435;33;20124;-84
2022/12/21 04:21:14;;;;;;;39.58;17.00;;;;;;;4.92;51.31;99202.97;4261089;33;20474;-83
2022/12/21 04:29:07;;;;;;;36.90;16.62;;;;;;;5.23;50.95;99202.19;4335518;33;20126;-85
2022/12/21 04:31:33;;;;;;;37.35;16.48;;;;;;;5.29;50.61;99204.66;4335292;33;20364;-85
2022/12/21 04:33:58;;;;;;;33.65;15.30;;;;;;;4.61;51.14;99203.72;4335186;33;20126;-85
2022/12/21 04:39:07;;;;;;;37.17;15.75;;;;;;;5.15;50.46;99189.34;4335423;33;20156;-85
2022/12/21 04:41:33;;;;;;;39.28;15.73;;;;;;;5.21;50.44;99190.94;4335337;33;20095;-86
2022/12/21 04:43:59;;;;;;;36.85;14.52;;;;;;;5.23;50.47;99210.03;4335304;33;20131;-86
2022/12/21 04:46:24;;;;;;;36.80;16.02;;;;;;;4.75;51.08;99213.84;4335260;33;20176;-86
2022/12/21 04:48:50;;;;;;;36.25;16.00;;;;;;;5.07;50.11;99209.59;4335181;33;20126;-86
2022/12/21 04:51:18;;;;;;;39.05;15.05;;;;;;;4.79;50.31;99202.44;4335304;33;20099;-86
2022/12/21 04:53:44;;;;;;;34.63;15.52;;;;;;;4.74;50.87;99209.53;4335101;33;20096;-86
2022/12/21 04:56:09;;;;;;;33.20;14.93;;;;;;;4.32;51.53;99207.84;4335094;33;20346;-85
2022/12/21 04:58:36;;;;;;;33.08;14.25;;;;;;;4.76;50.35;99202.50;4335148;33;20480;-86
2022/12/21 05:01:04;;;;;;;37.17;15.18;;;;;;;4.65;50.50;99207.13;4321528;33;20115;-85
2022/12/21 05:03:30;;;;;;;36.10;15.45;;;;;;;4.84;50.33;99191.88;4335190;33;20095;-84
2022/12/21 05:05:58;;;;;;;35.08;14.73;;;;;;;4.90;50.45;99192.56;4335109;33;20384;-85
2022/12/21 05:08:23;;;;;;;31.37;13.75;;;;;;;5.01;50.58;99191.47;4335096;33;20123;-84
2022/12/21 05:10:49;;;;;;;36.47;14.00;;;;;;;4.90;50.38;99189.97;4321806;33;20449;-85
2022/12/21 05:13:15;;;;;;;36.13;13.90;;;;;;;4.61;50.17;99189.84;4334982;33;20375;-85
2022/12/21 05:15:40;;;;;;;34.13;14.68;;;;;;;5.03;49.54;99182.69;4335002;33;20138;-85
2022/12/21 05:18:06;;;;;;;31.87;13.82;;;;;;;5.01;49.57;99186.25;4335212;33;20092;-85
2022/12/21 05:20:31;;;;;;;34.60;14.20;;;;;;;4.68;50.70;99196.62;4335020;33;20277;-85
2022/12/21 05:22:56;;;;;;;33.38;13.43;;;;;;;5.03;49.88;99184.44;4334923;33;20087;-85
2022/12/21 05:25:22;;;;;;;33.70;13.50;;;;;;;5.17;49.44;99184.09;4334969;33;20364;-85
2022/12/21 05:27:47;;;;;;;34.58;14.45;;;;;;;5.24;49.08;99169.97;4335097;33;20113;-84
2022/12/21 05:30:13;;;;;;;34.80;14.65;;;;;;;5.29;48.96;99166.34;4334983;33;20428;-84
2022/12/21 05:32:38;;;;;;;38.83;15.00;;;;;;;5.25;48.98;99177.78;4334908;33;20494;-84
2022/12/21 05:35:04;;;;;;;42.03;16.90;;;;;;;5.28;49.31;99175.06;4334802;33;20147;-84
2022/12/21 05:37:30;;;;;;;43.35;19.25;;;;;;;4.79;51.36;99175.47;4334961;33;20148;-84
2022/12/21 05:39:56;;;;;;;43.60;20.90;;;;;;;5.05;51.14;99180.03;4334841;33;20097;-85
2022/12/21 05:42:21;;;;;;;47.03;20.67;;;;;;;5.11;51.58;99177.25;4334808;33;20415;-85
2022/12/21 05:44:46;;;;;;;42.62;18.65;;;;;;;4.87;52.79;99179.63;4335146;33;20091;-85
2022/12/21 05:47:12;;;;;;;45.70;21.17;;;;;;;4.72;53.48;99180.00;4335131;33;20349;-84
2022/12/21 05:49:37;;;;;;;48.65;20.90;;;;;;;5.03;53.09;99176.63;4334881;33;20087;-85
2022/12/21 05:52:03;;;;;;;44.47;19.77;;;;;;;4.80;53.85;99185.03;4337351;33;20368;-85
2022/12/21 05:54:28;;;;;;;43.28;19.70;;;;;;;5.07;53.51;99184.31;4321288;33;20095;-85
2022/12/21 05:56:53;;;;;;;41.33;19.10;;;;;;;5.05;52.90;99187.88;4330653;33;20428;-85
2022/12/21 05:59:19;;;;;;;42.92;18.65;;;;;;;5.03;53.10;99181.84;4349543;33;20095;-85
2022/12/21 06:01:44;;;;;;;43.70;19.48;;;;;;;4.71;53.50;99180.88;4349268;33;20125;-87
2022/12/21 06:04:10;;;;;;;44.80;19.08;;;;;;;4.79;53.83;99183.28;4324007;33;20100;-84
2022/12/21 06:06:35;;;;;;;43.85;19.02;;;;;;;4.56;53.99;99179.50;4320062;33;20100;-84
2022/12/21 06:09:00;;;;;;;45.12;19.95;;;;;;;4.68;53.67;99186.19;4318911;33;20607;-84
2022/12/21 06:11:27;;;;;;;45.38;19.45;;;;;;;4.51;54.49;99178.75;4320103;33;20153;-84
2022/12/21 06:13:53;;;;;;;43.17;19.65;;;;;;;4.28;55.00;99187.97;4319859;33;20114;-84
2022/12/21 06:16:20;;;;;;;44.90;19.25;;;;;;;4.52;54.46;99180.50;4319886;33;20097;-84
2022/12/21 06:18:46;;;;;;;47.05;19.37;;;;;;;3.82;56.21;99183.75;4319992;33;20811;-84
2022/12/21 06:21:13;;;;;;;39.55;17.90;;;;;;;4.16;54.65;99192.63;4320021;33;20093;-84
2022/12/21 06:23:39;;;;;;;41.40;17.58;;;;;;;4.36;54.04;99195.63;4306634;33;20139;-84
2022/12/21 06:26:06;;;;;;;42.80;18.33;;;;;;;4.25;54.13;99195.00;4318711;33;20103;-84
2022/12/21 06:28:32;;;;;;;41.37;17.77;;;;;;;4.44;53.97;99191.09;4306593;33;20528;-84
2022/12/21 06:31:09;;;;;;;40.12;17.62;;;;;;;4.61;53.47;99189.84;4319910;33;20088;-84
2022/12/21 06:33:35;;;;;;;40.10;17.05;;;;;;;4.63;53.28;99183.66;4306454;33;20362;-84
2022/12/21 06:36:01;;;;;;;40.05;17.85;;;;;;;4.55;53.14;99180.41;4319677;33;20179;-85
2022/12/21 06:38:27;;;;;;;43.85;16.90;;;;;;;4.71;52.70;99180.88;4319819;33;20096;-82
2022/12/21 06:40:56;;;;;;;38.30;17.42;;;;;;;4.84;52.41;99176.22;4318499;33;20472;-82
2022/12/21 06:43:26;;;;;;;39.25;15.98;;;;;;;4.89;52.21;99172.59;4318396;33;20595;-82
2022/12/21 06:45:59;;;;;;;37.95;16.75;;;;;;;4.82;52.17;99181.47;4306836;33;20135;-82
2022/12/21 06:48:26;;;;;;;39.55;16.52;;;;;;;4.95;51.57;99168.13;4308060;33;20477;-82
2022/12/21 06:50:59;;;;;;;38.40;15.65;;;;;;;4.40;52.30;99176.38;4321398;33;20096;-82
2022/12/21 06:53:27;;;;;;;36.67;16.33;;;;;;;4.58;52.12;99169.00;4321323;33;20096;-83
2022/12/21 06:56:06;;;;;;;34.53;16.20;;;;;;;4.80;51.51;99158.94;4321357;33;20173;-83
2022/12/21 06:58:32;;;;;;;39.30;15.63;;;;;;;4.93;51.41;99165.56;4321370;33;20513;-83
2022/12/21 07:01:28;;;;;;;36.65;15.07;;;;;;;4.76;51.09;99163.34;4325460;33;20132;-84
2022/12/21 07:03:54;;;;;;;37.78;16.27;;;;;;;4.68;51.30;99162.69;4322508;33;20088;-85
2022/12/21 07:06:21;;;;;;;38.67;15.60;;;;;;;4.61;51.31;99159.38;4322509;33;20155;-85
2022/12/21 07:08:48;;;;;;;38.58;15.95;;;;;;;4.47;51.63;99170.13;4322444;33;20090;-83
2022/12/21 07:11:15;;;;;;;36.53;15.27;;;;;;;4.67;51.28;99171.41;4335873;33;20091;-84
2022/12/21 07:13:43;;;;;;;42.13;16.65;;;;;;;4.73;51.11;99160.81;4335846;33;20110;-83
2022/12/21 07:16:09;;;;;;;37.83;16.90;;;;;;;4.67;51.13;99161.81;4322516;33;20460;-86
2022/12/21 07:18:35;;;;;;;36.63;15.90;;;;;;;4.88;50.89;99168.25;4335870;33;20257;-85
2022/12/21 07:21:03;;;;;;;37.17;15.70;;;;;;;4.76;51.45;99170.34;4322457;33;20159;-84
2022/12/21 07:23:30;;;;;;;38.08;16.05;;;;;;;4.23;51.92;99173.31;4335827;33;20087;-86
2022/12/21 07:25:56;;;;;;;38.33;16.67;;;;;;;4.20;51.70;99168.19;4335961;33;20380;-87
2022/12/21 07:28:22;;;;;;;37.70;15.77;;;;;;;4.28;51.89;99167.09;4322462;33;20144;-82
2022/12/21 07:30:48;;;;;;;38.03;15.98;;;;;;;4.29;51.88;99170.59;4335849;33;20157;-82
2022/12/21 07:33:17;;;;;;;37.03;15.65;;;;;;;4.49;51.44;99163.13;4335674;33;20106;-89
2022/12/21 07:35:42;;;;;;;37.33;16.00;;;;;;;4.67;50.72;99168.81;4334861;33;20116;-90
2022/12/21 07:38:08;;;;;;;34.90;15.55;;;;;;;4.65;50.78;99168.84;4336192;33;20142;-82
2022/12/21 07:40:34;;;;;;;35.20;15.45;;;;;;;4.89;50.31;99172.59;4335854;33;20103;-89
2022/12/21 07:42:59;;;;;;;40.35;16.95;;;;;;;4.44;50.94;99170.22;4335635;33;20130;-86
2022/12/21 07:45:24;;;;;;;34.65;15.77;;;;;;;4.79;50.29;99163.28;4335478;33;20126;-83
2022/12/21 07:47:50;;;;;;;37.42;16.27;;;;;;;4.78;50.05;99153.75;4335836;33;20394;-86
2022/12/21 07:50:15;;;;;;;35.78;15.30;;;;;;;5.05;49.79;99156.53;4335677;33;20099;-82
2022/12/21 07:52:41;;;;;;;41.25;16.42;;;;;;;5.15;49.48;99157.16;4335613;33;20127;-84
2022/12/21 07:55:07;;;;;;;36.88;15.45;;;;;;;5.21;49.47;99154.37;4335539;33;20091;-80
2022/12/21 07:57:32;;;;;;;39.13;16.17;;;;;;;5.06;49.18;99151.28;4334868;33;20165;-79
2022/12/21 07:59:58;;;;;;;37.00;16.35;;;;;;;5.10;48.93;99147.69;4321913;33;20095;-79
2022/12/21 08:02:23;;;;;;;36.88;15.48;;;;;;;4.96;49.32;99147.19;4334508;33;20126;-79
2022/12/21 08:04:49;;;;;;;36.88;15.80;;;;;;;4.94;49.35;99146.38;4334839;33;20386;-82
2022/12/21 08:07:14;;;;;;;39.10;16.73;;;;;;;4.99;48.95;99149.72;4334855;33;20092;-82
2022/12/21 08:09:40;;;;;;;39.65;16.55;;;;;;;5.20;48.64;99142.22;4334732;33;20115;-83
2022/12/21 08:12:05;;;;;;;34.88;15.18;;;;;;;4.46;50.59;99144.09;4334634;33;20364;-84
2022/12/21 08:14:33;;;;;;;56.53;17.85;;;;;;;5.04;49.13;99146.97;4334601;33;20150;-87
2022/12/21 08:16:59;;;;;;;;;;;;;;;5.19;48.67;99143.97;4322159;33;20513;-87
2022/12/21 08:19:25;;;;;;;34.58;14.98;;;;;;;5.35;48.48;99140.94;4335058;33;19971;-86
2022/12/21 08:21:50;;;;;;;39.28;17.12;;;;;;;5.40;48.51;99142.53;4335317;33;20132;-91
2022/12/21 08:24:15;;;;;;;36.88;16.23;;;;;;;5.52;48.71;99143.94;4334744;33;20155;-89
2022/12/21 08:26:41;;;;;;;45.50;17.70;;;;;;;5.52;48.32;99143.94;4321214;33;20474;-91
2022/12/21 08:29:07;;;;;;;32.90;15.95;;;;;;;5.19;48.79;99136.12;4334497;33;20104;-86
2022/12/21 08:31:32;;;;;;;40.38;16.77;;;;;;;5.39;48.50;99132.09;4332911;33;20096;-87
2022/12/21 08:33:57;;;;;;;38.15;18.42;;;;;;;5.13;48.71;99142.38;4332626;33;20389;-87
2022/12/21 08:36:24;;;;;;;41.78;17.92;;;;;;;5.35;48.29;99139.19;4319236;33;20095;-87
2022/12/21 08:38:50;;;;;;;37.08;17.73;;;;;;;5.10;48.95;99141.63;4334037;33;20083;-87
2022/12/21 08:41:16;;;;;;;39.97;17.20;;;;;;;5.42;48.30;99142.47;4320666;33;20159;-87
2022/12/21 08:43:42;;;;;;;40.50;18.62;;;;;;;5.55;48.37;99140.41;4333974;33;20495;-87
2022/12/21 08:46:10;;;;;;;40.80;17.37;;;;;;;5.61;48.08;99135.84;4332927;33;20091;-87
2022/12/21 08:48:35;;;;;;;;;;;;;;;5.57;47.85;99138.59;4334848;33;20134;-87
2022/12/21 08:51:01;;;;;;;40.12;16.48;;;;;;;5.54;48.02;99136.06;4334438;33;19979;-87
2022/12/21 08:53:26;;;;;;;37.40;16.42;;;;;;;5.69;47.79;99136.47;4320663;33;20461;-87
2022/12/21 08:55:53;;;;;;;39.53;16.98;;;;;;;5.81;47.81;99135.25;4334325;33;20119;-87
2022/12/21 08:58:18;;;;;;;40.83;17.92;;;;;;;5.61;47.54;99133.22;4334268;33;20087;-87
2022/12/21 09:00:44;;;;;;;42.08;17.30;;;;;;;5.39;47.63;99134.72;4314268;33;224546;-87
2022/12/21 09:03:10;;;;;;;37.90;16.62;;;;;;;5.56;47.77;99121.19;4335152;33;20104;-87
2022/12/21 09:05:36;;;;;;;39.60;17.52;;;;;;;5.76;47.48;99131.94;4335146;33;20118;-87
2022/12/21 09:08:02;;;;;;;39.60;18.80;;;;;;;5.67;47.57;99134.81;4321764;33;20187;-87
2022/12/21 09:10:28;;;;;;;40.30;17.48;;;;;;;5.59;47.80;99136.78;4321456;33;20147;-87
2022/12/21 09:12:55;;;;;;;38.13;17.77;;;;;;;5.24;48.34;99142.09;4321854;33;20175;-87
2022/12/21 09:15:21;;;;;;;43.30;18.80;;;;;;;5.50;48.09;99130.94;4335267;33;20126;-87
2022/12/21 09:17:47;;;;;;;43.15;18.50;;;;;;;5.39;48.51;99132.09;4335039;33;20092;-87
2022/12/21 09:20:13;;;;;;;42.83;17.80;;;;;;;5.49;48.22;99130.97;4335150;33;20125;-87
2022/12/21 09:22:38;;;;;;;39.85;17.37;;;;;;;5.54;48.01;99129.06;4335158;33;20103;-87
2022/12/21 09:25:04;;;;;;;43.30;19.27;;;;;;;5.66;47.94;99120.00;4335066;33;20095;-87
2022/12/21 09:27:30;;;;;;;38.78;17.67;;;;;;;5.50;48.25;99115.25;4335055;33;20098;-87
2022/12/21 09:29:55;;;;;;;44.40;19.15;;;;;;;5.75;47.82;99109.28;4334995;33;20084;-87
2022/12/21 09:32:21;;;;;;;41.40;18.70;;;;;;;4.55;50.80;99116.94;4321615;33;20143;-87
2022/12/21 09:34:46;;;;;;;40.20;18.30;;;;;;;4.78;49.75;99098.06;4309373;33;20103;-87
2022/12/21 09:37:12;;;;;;;42.67;19.77;;;;;;;5.41;48.67;99099.84;4309321;33;20110;-87
2022/12/21 09:39:38;;;;;;;38.08;18.30;;;;;;;5.31;48.82;99094.00;4321675;33;20084;-87
2022/12/21 09:42:16;;;;;;;38.58;18.25;;;;;;;5.58;48.29;99091.50;4334906;33;20100;-88
2022/12/21 09:44:48;;;;;;;;;;;;;;;5.72;48.13;99081.50;4309849;33;20103;-87
2022/12/21 09:47:26;;;;;;;41.53;18.48;;;;;;;5.51;48.39;99087.34;4334992;33;20008;-87
2022/12/21 09:50:00;;;;;;;38.88;18.48;;;;;;;5.68;47.90;99074.66;4321662;33;20075;-87
2022/12/21 09:52:41;;;;;;;44.70;18.55;;;;;;;5.61;47.81;99075.72;4321799;33;20099;-87
2022/12/21 09:55:21;;;;;;;43.83;18.27;;;;;;;5.86;47.60;99081.06;4321813;33;20129;-87
2022/12/21 09:57:49;;;;;;;42.20;18.92;;;;;;;5.68;47.78;99079.03;4321886;33;20110;-87
2022/12/21 10:00:18;;;;;;;;;;;;;;;5.66;47.65;99079.06;4321677;33;20088;-86
2022/12/21 10:03:18;;;;;;;43.55;18.77;;;;;;;5.58;48.01;99074.94;4333824;33;19991;-87
2022/12/21 10:05:46;;;;;;;43.97;19.08;;;;;;;5.51;48.17;99076.91;4334874;33;20103;-87
2022/12/21 10:08:21;;;;;;;42.62;19.65;;;;;;;5.88;47.67;99076.63;4334683;33;20173;-87
2022/12/21 10:10:46;;;;;;;38.92;18.75;;;;;;;5.64;48.08;99069.53;4334687;33;20142;-87
2022/12/21 10:13:32;;;;;;;44.00;19.17;;;;;;;5.97;47.57;99067.69;4334657;33;20108;-87
2022/12/21 10:16:12;;;;;;;43.35;19.05;;;;;;;6.10;47.24;99063.81;4321350;33;20539;-87
2022/12/21 10:18:52;;;;;;;44.35;19.48;;;;;;;5.81;47.48;99063.81;4309287;33;20178;-87
2022/12/21 10:21:38;;;;;;;43.33;19.08;;;;;;;6.06;46.82;99058.69;4320404;33;20440;-87
2022/12/21 10:24:05;;;;;;;46.00;20.62;;;;;;;6.10;46.81;99062.91;4333483;33;20400;-88
2022/12/21 10:26:33;;;;;;;43.70;19.00;;;;;;;5.89;47.05;99064.41;4321222;33;20464;-87
2022/12/21 10:29:05;;;;;;;43.17;18.70;;;;;;;4.84;49.77;99063.97;4334473;33;20117;-87
2022/12/21 10:31:38;;;;;;;44.17;20.30;;;;;;;5.21;48.78;99060.34;4321146;33;20118;-87
2022/12/21 10:34:14;;;;;;;40.08;18.12;;;;;;;5.58;48.20;99054.03;4334292;33;20129;-87
2022/12/21 10:36:40;;;;;;;41.05;18.73;;;;;;;5.83;47.71;99049.81;4334581;33;20091;-87
2022/12/21 10:39:08;;;;;;;43.78;19.67;;;;;;;5.60;48.13;99047.00;4321095;33;20151;-87
2022/12/21 10:41:36;;;;;;;40.35;20.10;;;;;;;5.89;47.77;99044.38;4321083;33;20118;-87
2022/12/21 10:44:02;;;;;;;43.35;19.70;;;;;;;4.59;50.91;99048.13;4321099;33;20607;-87
2022/12/21 10:46:33;;;;;;;43.72;20.52;;;;;;;5.56;48.72;99045.41;4321023;33;20114;-87
2022/12/21 10:49:06;;;;;;;40.83;19.10;;;;;;;5.59;48.51;99045.31;4308736;33;20092;-87
2022/12/21 10:51:33;;;;;;;43.45;19.80;;;;;;;5.84;48.17;99037.56;4320987;33;20147;-87
2022/12/21 10:53:58;;;;;;;46.35;20.10;;;;;;;5.95;47.84;99030.28;4333090;33;20134;-87
2022/12/21 10:56:25;;;;;;;41.53;19.30;;;;;;;6.02;47.66;99023.09;4334003;33;20398;-87
2022/12/21 10:58:51;;;;;;;42.20;19.33;;;;;;;6.15;47.47;99023.56;4320750;33;20163;-87
2022/12/21 11:01:18;;;;;;;46.55;19.58;;;;;;;6.21;47.28;99016.34;4333969;33;20107;-88
2022/12/21 11:03:44;;;;;;;38.85;18.75;;;;;;;6.32;47.03;99017.75;4320757;33;20120;-87
2022/12/21 11:06:17;;;;;;;37.75;18.80;;;;;;;6.43;46.85;99008.66;4334144;33;20092;-87
2022/12/21 11:08:51;;;;;;;42.00;19.65;;;;;;;6.56;46.61;99008.22;4333973;33;20451;-87
2022/12/21 11:11:35;;;;;;;40.63;19.83;;;;;;;6.62;46.14;99002.75;4320723;33;20429;-87
2022/12/21 11:14:14;;;;;;;43.78;19.70;;;;;;;6.65;46.19;98995.66;4320506;33;20195;-88
2022/12/21 11:16:40;;;;;;;38.45;18.05;;;;;;;6.63;46.18;98994.84;4333993;33;20103;-87
2022/12/21 11:19:14;;;;;;;42.60;19.55;;;;;;;6.66;46.05;98991.28;4332681;33;20100;-87
2022/12/21 11:21:45;;;;;;;42.33;20.17;;;;;;;6.58;45.89;98998.53;4333964;33;20448;-88
2022/12/21 11:24:45;;;;;;;45.20;21.10;;;;;;;6.40;46.32;98987.81;4332642;33;20095;-87
2022/12/21 11:27:10;;;;;;;40.08;20.45;;;;;;;6.43;46.11;98992.94;4302417;33;20184;-88
2022/12/21 11:29:46;;;;;;;41.83;19.87;;;;;;;6.41;46.21;98981.69;4302355;33;20152;-87
2022/12/21 11:32:12;;;;;;;45.20;19.58;;;;;;;6.20;47.04;98987.63;4302781;33;20473;-87
2022/12/21 11:34:39;;;;;;;49.03;20.60;;;;;;;6.42;46.88;98979.91;4304359;33;20425;-87
2022/12/21 11:37:21;;;;;;;42.80;20.23;;;;;;;6.45;46.55;98980.66;4304465;33;20104;-87
2022/12/21 11:39:47;;;;;;;42.20;20.08;;;;;;;6.61;46.06;98987.97;4304542;33;20100;-88
2022/12/21 11:42:21;;;;;;;44.97;20.62;;;;;;;5.95;47.28;98982.31;4304524;33;20396;-86
2022/12/21 11:45:07;;;;;;;43.28;20.27;;;;;;;5.99;47.52;98987.44;4304342;33;20578;-87
2022/12/21 11:48:17;;;;;;;42.33;19.75;;;;;;;6.10;47.44;98984.47;4304402;33;20133;-87
2022/12/21 11:51:07;;;;;;;43.10;20.05;;;;;;;5.89;47.93;98983.38;4261095;33;20329;-87
2022/12/21 11:53:38;;;;;;;44.10;19.92;;;;;;;6.11;47.29;98970.50;4261045;33;20477;-88